createdAt,value
2023-03-14T00:01:14.733Z,98116.88
2023-03-14T00:03:44.233Z,98101.31
2023-03-14T00:06:12.785Z,98100.34
2023-03-14T00:08:40.978Z,98095.53
2023-03-14T00:11:09.622Z,98102.16
2023-03-14T00:13:37.385Z,98097.03
2023-03-14T00:16:06.159Z,98103.31
2023-03-14T00:18:34.730Z,98093.06
2023-03-14T00:21:04.785Z,98098.03
2023-03-14T00:23:33.808Z,98093.91
2023-03-14T00:26:01.928Z,98090.91
2023-03-14T00:28:29.627Z,98091.06
2023-03-14T00:30:57.730Z,98087.94
2023-03-14T00:33:25.968Z,98099.84
2023-03-14T00:35:57.717Z,98078.19
2023-03-14T00:38:26.831Z,98066.59
2023-03-14T00:40:54.667Z,98080.97
2023-03-14T00:43:23.604Z,98093.03
2023-03-14T00:45:51.327Z,98083.78
2023-03-14T00:48:19.129Z,98063.28
2023-03-14T00:50:47.018Z,98065.25
2023-03-14T00:53:15.430Z,98066.59
2023-03-14T00:55:45.473Z,98060.16
2023-03-14T00:58:15.017Z,98059.78
2023-03-14T01:00:43.436Z,98046.38
2023-03-14T01:03:12.069Z,98057.97
2023-03-14T01:05:40.053Z,98051.38
2023-03-14T01:08:07.887Z,98040.78
2023-03-14T01:10:35.751Z,98041.13
2023-03-14T01:13:04.830Z,98037.50
2023-03-14T01:15:34.067Z,98059.94
2023-03-14T01:18:01.784Z,98043.78
2023-03-14T01:20:29.520Z,98054.81
2023-03-14T01:22:57.466Z,98068.22
2023-03-14T01:25:25.217Z,98067.28
2023-03-14T01:27:52.920Z,98081.50
2023-03-14T01:30:22.218Z,98081.50
2023-03-14T01:32:50.069Z,98058.31
2023-03-14T01:35:18.077Z,98081.63
2023-03-14T01:37:45.809Z,98075.34
2023-03-14T01:40:15.110Z,98071.19
2023-03-14T01:42:47.290Z,98068.88
2023-03-14T01:45:54.230Z,98066.66
2023-03-14T01:48:23.420Z,98054.94
2023-03-14T01:50:51.086Z,98052.63
2023-03-14T01:53:22.262Z,98062.84
2023-03-14T01:55:50.080Z,98076.38
2023-03-14T01:58:18.153Z,98072.44
2023-03-14T02:00:45.929Z,98071.44
2023-03-14T02:03:17.590Z,98049.25
2023-03-14T02:05:47.891Z,98061.03
2023-03-14T02:08:16.979Z,98064.09
2023-03-14T02:10:46.897Z,98065.16
2023-03-14T02:13:15.365Z,98062.09
2023-03-14T02:15:43.249Z,98067.47
2023-03-14T02:18:11.426Z,98060.78
2023-03-14T02:20:44.922Z,98051.94
2023-03-14T02:23:14.876Z,98045.72
2023-03-14T02:25:45.915Z,98060.28
2023-03-14T02:28:15.158Z,98051.44
2023-03-14T02:30:43.017Z,98053.09
2023-03-14T02:33:13.282Z,98059.91
2023-03-14T02:35:44.098Z,98058.94
2023-03-14T02:38:17.342Z,98059.00
2023-03-14T02:40:45.059Z,98056.78
2023-03-14T02:43:12.690Z,98063.34
2023-03-14T02:45:44.669Z,98067.22
2023-03-14T02:48:17.080Z,98068.31
2023-03-14T02:50:46.105Z,98072.47
2023-03-14T02:53:15.969Z,98074.16
2023-03-14T02:55:47.503Z,98080.13
2023-03-14T02:58:15.170Z,98085.13
2023-03-14T03:00:44.202Z,98091.19
2023-03-14T03:03:11.939Z,98082.81
2023-03-14T03:05:39.625Z,98069.91
2023-03-14T03:08:07.523Z,98068.31
2023-03-14T03:10:35.201Z,98079.50
2023-03-14T03:13:03.196Z,98068.53
2023-03-14T03:15:31.357Z,98073.59
2023-03-14T03:18:00.421Z,98062.72
2023-03-14T03:20:28.252Z,98078.81
2023-03-14T03:22:56.378Z,98073.63
2023-03-14T03:25:24.039Z,98065.47
2023-03-14T03:27:52.062Z,98060.03
2023-03-14T03:30:20.190Z,98057.66
2023-03-14T03:32:48.322Z,98062.88
2023-03-14T03:35:17.548Z,98059.84
2023-03-14T03:37:45.281Z,98065.53
2023-03-14T03:40:13.378Z,98063.81
2023-03-14T03:42:41.032Z,98069.09
2023-03-14T03:45:09.960Z,98068.72
2023-03-14T03:47:37.670Z,98065.56
2023-03-14T03:50:06.199Z,98068.72
2023-03-14T03:52:35.305Z,98042.47
2023-03-14T03:55:02.960Z,98065.84
2023-03-14T03:57:30.640Z,98065.84
2023-03-14T03:59:58.343Z,98064.69
2023-03-14T04:02:26.076Z,98068.50
2023-03-14T04:04:53.948Z,98059.94
2023-03-14T04:07:21.809Z,98064.91
2023-03-14T04:09:50.902Z,98060.66
2023-03-14T04:12:18.594Z,98050.97
2023-03-14T04:14:47.344Z,98049.38
2023-03-14T04:17:14.998Z,98050.41
2023-03-14T04:19:43.142Z,98050.97
2023-03-14T04:22:10.997Z,98044.56
2023-03-14T04:24:38.715Z,98053.09
2023-03-14T04:27:07.720Z,98043.19
2023-03-14T04:29:35.372Z,98045.88
2023-03-14T04:32:03.089Z,98039.81
2023-03-14T04:34:30.833Z,98047.13
2023-03-14T04:36:58.476Z,98046.44
2023-03-14T04:39:26.290Z,98045.03
2023-03-14T04:41:54.140Z,98035.25
2023-03-14T04:44:23.199Z,98038.38
2023-03-14T04:46:50.946Z,98028.13
2023-03-14T04:49:18.774Z,98030.47
2023-03-14T04:51:46.489Z,98030.56
2023-03-14T04:54:14.177Z,98036.75
2023-03-14T04:56:41.823Z,98033.75
2023-03-14T04:59:09.836Z,98024.97
2023-03-14T05:01:38.909Z,98035.09
2023-03-14T05:04:06.571Z,98037.25
2023-03-14T05:06:34.227Z,98024.25
2023-03-14T05:09:01.928Z,98028.47
2023-03-14T05:11:30.463Z,98021.63
2023-03-14T05:13:58.132Z,98031.78
2023-03-14T05:16:25.871Z,98013.97
2023-03-14T05:18:54.944Z,98010.94
2023-03-14T05:21:22.612Z,98006.97
2023-03-14T05:23:50.270Z,98008.66
2023-03-14T05:26:18.388Z,98007.38
2023-03-14T05:28:46.119Z,98013.34
2023-03-14T05:31:13.836Z,98005.72
2023-03-14T05:33:42.134Z,98005.72
2023-03-14T05:36:11.575Z,98005.50
2023-03-14T05:38:39.480Z,98001.13
2023-03-14T05:41:07.542Z,98013.25
2023-03-14T05:43:35.295Z,98001.06
2023-03-14T05:46:03.068Z,98005.72
2023-03-14T05:48:30.792Z,98006.22
2023-03-14T05:50:58.599Z,97998.06
2023-03-14T05:53:28.002Z,97993.38
2023-03-14T05:55:57.864Z,97992.50
2023-03-14T05:58:25.993Z,97987.84
2023-03-14T06:00:53.707Z,97992.09
2023-03-14T06:03:21.404Z,97988.25
2023-03-14T06:05:51.925Z,97984.88
2023-03-14T06:08:19.733Z,97991.41
2023-03-14T06:10:48.833Z,97982.91
2023-03-14T06:13:17.345Z,97996.97
2023-03-14T06:15:45.333Z,97992.66
2023-03-14T06:18:13.300Z,97995.66
2023-03-14T06:20:41.123Z,98001.34
2023-03-14T06:23:09.584Z,97986.41
2023-03-14T06:25:37.869Z,97998.00
2023-03-14T06:28:07.286Z,98004.81
2023-03-14T06:30:35.137Z,98012.91
2023-03-14T06:33:02.878Z,98006.47
2023-03-14T06:35:30.656Z,98011.41
2023-03-14T06:37:58.398Z,98003.94
2023-03-14T06:40:26.079Z,97999.00
2023-03-14T06:42:53.848Z,98006.28
2023-03-14T06:45:22.970Z,97998.63
2023-03-14T06:47:50.697Z,97991.72
2023-03-14T06:50:18.549Z,97999.91
2023-03-14T06:52:48.804Z,98016.41
2023-03-14T06:55:17.072Z,98016.13
2023-03-14T06:57:45.244Z,98009.53
2023-03-14T07:00:14.412Z,98020.09
2023-03-14T07:02:43.705Z,98016.81
2023-03-14T07:05:12.327Z,98016.97
2023-03-14T07:07:40.075Z,98022.06
2023-03-14T07:10:09.801Z,98029.41
2023-03-14T07:12:37.812Z,98032.06
2023-03-14T07:15:17.406Z,98025.13
2023-03-14T07:17:48.925Z,98033.84
2023-03-14T07:20:16.911Z,98036.38
2023-03-14T07:22:44.728Z,98025.94
2023-03-14T07:25:13.170Z,98027.59
2023-03-14T07:27:41.170Z,98023.13
2023-03-14T07:30:09.761Z,98032.97
2023-03-14T07:32:37.555Z,98030.47
2023-03-14T07:35:08.174Z,98026.22
2023-03-14T07:37:35.871Z,98035.31
2023-03-14T07:40:06.476Z,98028.19
2023-03-14T07:42:34.168Z,98032.41
2023-03-14T07:45:01.923Z,98042.44
2023-03-14T07:47:30.087Z,98040.97
2023-03-14T07:49:57.770Z,98047.66
2023-03-14T07:52:26.923Z,98047.22
2023-03-14T07:54:54.656Z,98042.94
2023-03-14T07:57:22.432Z,98037.75
2023-03-14T07:59:50.108Z,98138.53
2023-03-14T08:02:18.980Z,98107.66
2023-03-14T08:04:46.733Z,98127.44
2023-03-14T08:07:14.457Z,98136.81
2023-03-14T08:09:43.530Z,98158.13
2023-03-14T08:12:11.193Z,98160.03
2023-03-14T08:14:38.922Z,98164.25
2023-03-14T08:17:09.112Z,98165.09
2023-03-14T08:19:36.922Z,98173.09
2023-03-14T08:22:04.684Z,98168.94
2023-03-14T08:24:32.530Z,98185.13
2023-03-14T08:27:01.582Z,98196.34
2023-03-14T08:29:29.262Z,98192.47
2023-03-14T08:31:57.156Z,98212.63
2023-03-14T08:34:24.826Z,98247.09
2023-03-14T08:36:52.540Z,98264.91
2023-03-14T08:39:20.224Z,98256.41
2023-03-14T08:41:48.029Z,98281.50
2023-03-14T08:44:20.127Z,98288.06
2023-03-14T08:46:48.435Z,98301.56
2023-03-14T08:49:16.542Z,98326.75
2023-03-14T08:51:44.299Z,98331.63
2023-03-14T08:54:12.390Z,98349.44
2023-03-14T08:56:40.091Z,98377.63
2023-03-14T08:59:09.119Z,98399.13
2023-03-14T09:01:38.162Z,98410.88
2023-03-14T09:04:06.259Z,98419.56
2023-03-14T09:06:34.008Z,98421.97
2023-03-14T09:09:02.197Z,98418.03
2023-03-14T09:11:29.889Z,98421.97
2023-03-14T09:13:57.607Z,98472.13
2023-03-14T09:16:25.436Z,98475.78
2023-03-14T09:18:55.461Z,98486.19
2023-03-14T09:21:23.346Z,98509.94
2023-03-14T09:23:51.094Z,98520.31
2023-03-14T09:26:18.796Z,98507.91
2023-03-14T09:28:46.507Z,98528.69
2023-03-14T09:31:14.541Z,98543.88
2023-03-14T09:33:42.330Z,98543.75
2023-03-14T09:36:11.842Z,98561.09
2023-03-14T09:38:39.531Z,98561.75
2023-03-14T09:41:15.385Z,98577.16
2023-03-14T09:43:44.038Z,98578.75
2023-03-14T09:46:12.427Z,98597.66
2023-03-14T09:48:40.163Z,98605.72
2023-03-14T09:51:15.819Z,98616.78
2023-03-14T09:53:45.106Z,98622.53
2023-03-14T09:56:15.561Z,98635.81
2023-03-14T09:58:45.315Z,98650.44
2023-03-14T10:01:15.631Z,98657.25
2023-03-14T10:03:44.571Z,98660.69
2023-03-14T10:06:15.457Z,98672.94
2023-03-14T10:08:43.672Z,98674.81
2023-03-14T10:11:16.475Z,98690.09
2023-03-14T10:14:04.998Z,98697.72
2023-03-14T10:16:34.573Z,98692.09
2023-03-14T10:19:06.260Z,98700.44
2023-03-14T10:21:40.334Z,98711.75
2023-03-14T10:24:28.951Z,98718.66
2023-03-14T10:26:59.140Z,98728.03
2023-03-14T10:29:26.893Z,98746.84
2023-03-14T10:31:55.493Z,98746.47
2023-03-14T10:34:25.870Z,98753.72
2023-03-14T10:37:00.295Z,98764.69
2023-03-14T10:39:31.322Z,98771.22
2023-03-14T10:42:05.945Z,98791.50
2023-03-14T10:44:34.561Z,98793.63
2023-03-14T10:47:03.990Z,98800.19
2023-03-14T10:49:33.366Z,98809.13
2023-03-14T10:52:16.693Z,98823.13
2023-03-14T10:54:49.450Z,98830.88
2023-03-14T10:57:17.554Z,98869.28
2023-03-14T10:59:45.425Z,98858.72
2023-03-14T11:02:27.790Z,98881.97
2023-03-14T11:05:05.630Z,98879.28
2023-03-14T11:07:39.206Z,98891.69
2023-03-14T11:10:16.961Z,98898.06
2023-03-14T11:12:54.740Z,98908.13
2023-03-14T11:15:27.437Z,98920.66
2023-03-14T11:18:08.616Z,98930.72
2023-03-14T11:20:40.800Z,98948.00
2023-03-14T11:23:15.695Z,98958.44
2023-03-14T11:25:50.691Z,98972.56
2023-03-14T11:28:21.023Z,98991.81
2023-03-14T11:30:53.232Z,98980.47
2023-03-14T11:33:26.154Z,98986.91
2023-03-14T11:36:00.408Z,98995.84
2023-03-14T11:38:34.860Z,98997.97
2023-03-14T11:41:02.942Z,99000.16
2023-03-14T11:43:33.037Z,99012.44
2023-03-14T11:46:06.582Z,99013.25
2023-03-14T11:48:44.544Z,99013.16
2023-03-14T11:51:18.981Z,99033.22
2023-03-14T11:53:53.180Z,99045.69
2023-03-14T11:56:27.050Z,99076.06
2023-03-14T11:58:59.656Z,99066.53
2023-03-14T12:01:35.253Z,99096.59
2023-03-14T12:04:06.864Z,99074.91
2023-03-14T12:06:38.033Z,99090.78
2023-03-14T12:09:08.108Z,99099.72
2023-03-14T12:11:39.992Z,99109.22
2023-03-14T12:14:20.049Z,99092.47
2023-03-14T12:16:48.785Z,99099.69
2023-03-14T12:19:27.769Z,99115.34
2023-03-14T12:21:58.247Z,99117.66
2023-03-14T12:24:29.009Z,99130.63
2023-03-14T12:26:59.020Z,99148.91
2023-03-14T12:29:27.071Z,99150.19
2023-03-14T12:32:24.222Z,99149.38
2023-03-14T12:34:52.037Z,99168.47
2023-03-14T12:37:29.097Z,99161.50
2023-03-14T12:40:07.210Z,99172.59
2023-03-14T12:42:46.990Z,99177.22
2023-03-14T12:45:28.493Z,99193.31
2023-03-14T12:47:58.445Z,99211.91
2023-03-14T12:50:28.803Z,99201.00
2023-03-14T12:53:32.273Z,99203.94
2023-03-14T12:56:04.964Z,99229.44
2023-03-14T12:58:37.198Z,99226.00
2023-03-14T13:01:06.686Z,99232.47
2023-03-14T13:03:42.456Z,99230.16
2023-03-14T13:06:11.462Z,99249.00
2023-03-14T13:08:41.278Z,99251.84
2023-03-14T13:11:12.937Z,99264.88
2023-03-14T13:13:46.019Z,99281.09
2023-03-14T13:16:17.994Z,99268.13
2023-03-14T13:18:46.848Z,99261.69
2023-03-14T13:21:17.145Z,99311.00
2023-03-14T13:24:00.466Z,99284.25
2023-03-14T13:26:36.807Z,99296.69
2023-03-14T13:29:12.027Z,99302.28
2023-03-14T13:31:45.632Z,99341.09
2023-03-14T13:34:13.490Z,99313.59
2023-03-14T13:36:41.230Z,99313.34
2023-03-14T13:39:14.083Z,99316.69
2023-03-14T13:41:43.932Z,99332.72
2023-03-14T13:44:18.032Z,99320.22
2023-03-14T13:46:45.764Z,99347.19
2023-03-14T13:49:18.328Z,99357.09
2023-03-14T13:51:45.974Z,99365.72
2023-03-14T13:54:18.141Z,99351.06
2023-03-14T13:56:47.255Z,99364.53
2023-03-14T13:59:25.328Z,99368.84
2023-03-14T14:01:53.618Z,99376.81
2023-03-14T14:04:24.149Z,99393.16
2023-03-14T14:06:55.275Z,99416.59
2023-03-14T14:09:25.381Z,99414.94
2023-03-14T14:12:14.361Z,99426.63
2023-03-14T14:14:45.371Z,99435.41
2023-03-14T14:17:15.497Z,99445.19
2023-03-14T14:19:43.780Z,99453.13
2023-03-14T14:22:12.304Z,99450.25
2023-03-14T14:24:40.870Z,99452.09
2023-03-14T14:27:15.501Z,99458.13
2023-03-14T14:29:43.781Z,99468.84
2023-03-14T14:32:14.564Z,99448.63
2023-03-14T14:34:43.568Z,99479.78
2023-03-14T14:37:22.382Z,99501.38
2023-03-14T14:39:50.723Z,99503.09
2023-03-14T14:42:23.133Z,99493.78
2023-03-14T14:44:52.646Z,99506.22
2023-03-14T14:47:22.157Z,99514.31
2023-03-14T14:49:50.861Z,99523.97
2023-03-14T14:52:20.616Z,99535.00
2023-03-14T14:54:51.489Z,99534.41
2023-03-14T14:57:22.856Z,99541.91
2023-03-14T14:59:54.236Z,99548.97
2023-03-14T15:02:32.487Z,99558.59
2023-03-14T15:05:00.237Z,99553.28
2023-03-14T15:07:28.367Z,99558.88
2023-03-14T15:09:56.155Z,99577.63
2023-03-14T15:12:25.739Z,99569.97
2023-03-14T15:14:53.485Z,99584.59
2023-03-14T15:17:21.222Z,99575.09
2023-03-14T15:19:48.919Z,99590.28
2023-03-14T15:22:16.800Z,99584.44
2023-03-14T15:24:44.607Z,99589.78
2023-03-14T15:27:14.880Z,99598.84
2023-03-14T15:29:43.985Z,99618.84
2023-03-14T15:32:13.348Z,99601.25
2023-03-14T15:34:41.046Z,99609.34
2023-03-14T15:37:13.349Z,99621.19
2023-03-14T15:39:41.270Z,99612.31
2023-03-14T15:42:09.192Z,99627.50
2023-03-14T15:44:36.913Z,99630.31
2023-03-14T15:47:06.970Z,99631.56
2023-03-14T15:49:34.773Z,99628.13
2023-03-14T15:52:03.083Z,99643.25
2023-03-14T15:54:30.782Z,99643.50
2023-03-14T15:56:59.702Z,99634.25
2023-03-14T15:59:27.630Z,99652.69
2023-03-14T16:01:55.336Z,99678.75
2023-03-14T16:04:24.568Z,99663.69
2023-03-14T16:06:52.336Z,99671.28
2023-03-14T16:09:19.999Z,99677.53
2023-03-14T16:11:48.305Z,99682.81
2023-03-14T16:14:16.028Z,99682.13
2023-03-14T16:16:43.783Z,99688.63
2023-03-14T16:19:11.505Z,99718.66
2023-03-14T16:21:40.522Z,99706.34
2023-03-14T16:24:08.228Z,99726.06
2023-03-14T16:26:37.184Z,99720.59
2023-03-14T16:29:05.158Z,99728.66
2023-03-14T16:31:33.570Z,99723.34
2023-03-14T16:34:04.147Z,99746.91
2023-03-14T16:36:31.812Z,99757.38
2023-03-14T16:39:00.914Z,99756.53
2023-03-14T16:41:31.407Z,99767.28
2023-03-14T16:43:59.185Z,99768.19
2023-03-14T16:46:28.746Z,99761.38
2023-03-14T16:48:56.483Z,99775.94
2023-03-14T16:51:25.048Z,99777.75
2023-03-14T16:53:52.720Z,99794.91
2023-03-14T16:56:21.789Z,99802.75
2023-03-14T16:58:50.159Z,99794.03
2023-03-14T17:01:19.650Z,99813.16
2023-03-14T17:03:48.835Z,99814.66
2023-03-14T17:06:18.162Z,99822.09
2023-03-14T17:08:45.975Z,99834.72
2023-03-14T17:11:13.702Z,99829.25
2023-03-14T17:13:42.828Z,99843.59
2023-03-14T17:16:11.047Z,99843.59
2023-03-14T17:18:38.882Z,99846.78
2023-03-14T17:21:07.256Z,99848.50
2023-03-14T17:23:35.639Z,99864.59
2023-03-14T17:26:03.507Z,99872.59
2023-03-14T17:28:31.403Z,99868.91
2023-03-14T17:31:07.849Z,99880.31
2023-03-14T17:33:35.828Z,99885.59
2023-03-14T17:36:03.671Z,99895.63
2023-03-14T17:38:31.976Z,99892.56
2023-03-14T17:40:59.732Z,99896.59
2023-03-14T17:43:27.575Z,99901.06
2023-03-14T17:45:59.639Z,99907.03
2023-03-14T17:48:29.146Z,99898.69
2023-03-14T17:51:00.000Z,99913.31
2023-03-14T17:53:29.426Z,99903.56
2023-03-14T17:55:57.283Z,99912.84
2023-03-14T17:58:25.079Z,99912.25
2023-03-14T18:00:52.784Z,99922.66
2023-03-14T18:03:22.328Z,99932.91
2023-03-14T18:05:51.406Z,99929.38
2023-03-14T18:08:19.139Z,99941.94
2023-03-14T18:10:47.026Z,99941.53
2023-03-14T18:13:14.712Z,99946.81
2023-03-14T18:15:42.439Z,99947.84
2023-03-14T18:18:10.194Z,99958.06
2023-03-14T18:20:37.897Z,99963.44
2023-03-14T18:23:07.761Z,99977.63
2023-03-14T18:25:35.454Z,99993.66
2023-03-14T18:28:03.166Z,100034.13
2023-03-14T18:30:30.831Z,100005.44
2023-03-14T18:32:58.592Z,100014.13
2023-03-14T18:35:26.489Z,99993.38
2023-03-14T18:37:54.212Z,100006.38
2023-03-14T18:40:23.280Z,100007.75
2023-03-14T18:42:50.939Z,100007.31
2023-03-14T18:45:18.661Z,100008.78
2023-03-14T18:47:46.312Z,100013.38
2023-03-14T18:50:14.047Z,100015.69
2023-03-14T18:52:41.728Z,100031.09
2023-03-14T18:55:11.031Z,100037.75
2023-03-14T18:57:40.112Z,100039.53
2023-03-14T19:00:10.784Z,100044.94
2023-03-14T19:02:38.597Z,100066.06
2023-03-14T19:05:09.128Z,100078.06
2023-03-14T19:07:36.881Z,100075.28
2023-03-14T19:10:04.917Z,100082.53
2023-03-14T19:12:32.924Z,100084.56
2023-03-14T19:15:01.929Z,100073.47
2023-03-14T19:17:29.789Z,100072.97
2023-03-14T19:19:57.744Z,100074.13
2023-03-14T19:22:25.528Z,100076.25
2023-03-14T19:24:55.385Z,100070.66
2023-03-14T19:27:23.097Z,100058.41
2023-03-14T19:29:50.816Z,100060.97
2023-03-14T19:32:20.662Z,100069.38
2023-03-14T19:34:48.393Z,100077.16
2023-03-14T19:37:16.113Z,100075.16
2023-03-14T19:39:45.796Z,100070.25
2023-03-14T19:42:13.660Z,100069.88
2023-03-14T19:44:41.408Z,100072.06
2023-03-14T19:47:09.095Z,100079.47
2023-03-14T19:49:38.359Z,100079.03
2023-03-14T19:52:06.272Z,100080.19
2023-03-14T19:54:34.226Z,100086.56
2023-03-14T19:57:04.209Z,100089.09
2023-03-14T19:59:32.024Z,100094.94
2023-03-14T20:01:59.794Z,100100.88
2023-03-14T20:04:27.852Z,100105.25
2023-03-14T20:06:56.925Z,100105.63
2023-03-14T20:09:24.693Z,100110.09
2023-03-14T20:11:52.450Z,100106.69
2023-03-14T20:14:21.329Z,100106.94
2023-03-14T20:16:49.615Z,100108.81
2023-03-14T20:19:17.432Z,100111.59
2023-03-14T20:21:45.067Z,100114.63
2023-03-14T20:24:14.092Z,100120.13
2023-03-14T20:26:41.942Z,100121.56
2023-03-14T20:29:09.936Z,100130.97
2023-03-14T20:31:40.125Z,100131.19
2023-03-14T20:34:07.872Z,100135.94
2023-03-14T20:36:36.056Z,100132.06
2023-03-14T20:39:04.582Z,100143.84
2023-03-14T20:41:33.974Z,100139.59
2023-03-14T20:44:01.706Z,100136.41
2023-03-14T20:46:29.536Z,100138.16
2023-03-14T20:48:57.344Z,100139.47
2023-03-14T20:51:25.948Z,100130.69
2023-03-14T20:53:53.853Z,100141.53
2023-03-14T20:56:21.572Z,100143.66
2023-03-14T20:58:50.796Z,100148.88
2023-03-14T21:01:18.566Z,100144.56
2023-03-14T21:03:46.315Z,100142.88
2023-03-14T21:06:14.638Z,100147.59
2023-03-14T21:08:42.656Z,100142.16
2023-03-14T21:11:10.442Z,100146.94
2023-03-14T21:13:38.084Z,100145.72
2023-03-14T21:16:08.713Z,100150.25
2023-03-14T21:18:36.804Z,100152.00
2023-03-14T21:21:04.669Z,100155.75
2023-03-14T21:23:34.501Z,100153.94
2023-03-14T21:26:02.781Z,100145.94
2023-03-14T21:28:30.448Z,100157.28
2023-03-14T21:31:06.001Z,100158.53
2023-03-14T21:33:35.492Z,100166.03
2023-03-14T21:36:03.224Z,100162.13
2023-03-14T21:38:30.894Z,100157.69
2023-03-14T21:40:59.857Z,100160.34
2023-03-14T21:43:28.208Z,100163.13
2023-03-14T21:45:56.165Z,100176.50
2023-03-14T21:48:23.817Z,100172.72
2023-03-14T21:50:53.236Z,100171.00
2023-03-14T21:53:20.963Z,100175.19
2023-03-14T21:55:48.843Z,100160.25
2023-03-14T21:58:16.529Z,100164.50
2023-03-14T22:00:48.903Z,100165.13
2023-03-14T22:03:16.960Z,100172.59
2023-03-14T22:05:45.276Z,100165.69
2023-03-14T22:08:15.979Z,100165.78
2023-03-14T22:10:45.518Z,100173.94
2023-03-14T22:13:13.416Z,100180.44
2023-03-14T22:15:41.094Z,100173.16
2023-03-14T22:18:08.785Z,100181.31
2023-03-14T22:20:36.642Z,100173.72
2023-03-14T22:23:04.443Z,100167.72
2023-03-14T22:25:33.441Z,100179.19
2023-03-14T22:28:01.236Z,100172.16
2023-03-14T22:30:28.905Z,100182.44
2023-03-14T22:32:57.003Z,100189.69
2023-03-14T22:35:24.742Z,100191.91
2023-03-14T22:37:52.437Z,100187.00
2023-03-14T22:40:20.293Z,100194.34
2023-03-14T22:42:52.926Z,100201.94
2023-03-14T22:45:20.685Z,100209.94
2023-03-14T22:47:48.457Z,100209.53
2023-03-14T22:50:16.363Z,100220.50
2023-03-14T22:52:44.031Z,100224.16
2023-03-14T22:55:11.862Z,100222.56
2023-03-14T22:57:41.148Z,100213.41
2023-03-14T23:00:13.970Z,100228.41
2023-03-14T23:02:42.231Z,100222.31
2023-03-14T23:05:10.965Z,100225.66
2023-03-14T23:07:38.652Z,100225.78
2023-03-14T23:10:07.612Z,100222.22
2023-03-14T23:12:35.499Z,100237.34
2023-03-14T23:15:05.982Z,100228.28
2023-03-14T23:17:35.422Z,100233.63
2023-03-14T23:20:06.505Z,100233.91
2023-03-14T23:22:34.276Z,100233.69
2023-03-14T23:25:02.188Z,100226.19
2023-03-14T23:27:29.840Z,100240.59
2023-03-14T23:29:58.595Z,100235.00
2023-03-14T23:32:26.319Z,100242.16
2023-03-14T23:34:55.361Z,100241.19
2023-03-14T23:37:23.464Z,100238.25
2023-03-14T23:39:51.814Z,100237.50
2023-03-14T23:42:19.726Z,100245.75
2023-03-14T23:44:47.403Z,100242.47
2023-03-14T23:47:15.078Z,100243.75
2023-03-14T23:49:42.774Z,100248.41
2023-03-14T23:52:11.874Z,100241.88
2023-03-14T23:54:39.557Z,100253.00
2023-03-14T23:57:07.357Z,100250.22
2023-03-14T23:59:35.405Z,100254.38
